sensor_id;sensor_type;location;lat;lon;timestamp;temperature;humidity
25108;DHT22;13090;53.422;7.670;2023-03-14T00:01:48;12.70;77.80
25108;DHT22;13090;53.422;7.670;2023-03-14T00:06:52;12.70;78.00
25108;DHT22;13090;53.422;7.670;2023-03-14T00:11:54;12.60;78.10
25108;DHT22;13090;53.422;7.670;2023-03-14T00:16:56;12.60;78.30
25108;DHT22;13090;53.422;7.670;2023-03-14T00:21:59;12.60;78.50
25108;DHT22;13090;53.422;7.670;2023-03-14T00:27:02;12.60;78.50
25108;DHT22;13090;53.422;7.670;2023-03-14T00:32:04;12.60;78.50
25108;DHT22;13090;53.422;7.670;2023-03-14T00:37:07;12.50;78.50
25108;DHT22;13090;53.422;7.670;2023-03-14T00:42:09;12.60;78.80
25108;DHT22;13090;53.422;7.670;2023-03-14T00:47:12;12.60;79.00
25108;DHT22;13090;53.422;7.670;2023-03-14T00:52:15;12.60;79.30
25108;DHT22;13090;53.422;7.670;2023-03-14T00:57:17;12.70;79.40
25108;DHT22;13090;53.422;7.670;2023-03-14T01:02:19;12.70;79.50
25108;DHT22;13090;53.422;7.670;2023-03-14T01:07:23;12.80;79.50
25108;DHT22;13090;53.422;7.670;2023-03-14T01:12:27;12.90;79.40
25108;DHT22;13090;53.422;7.670;2023-03-14T01:17:29;13.00;79.20
25108;DHT22;13090;53.422;7.670;2023-03-14T01:22:33;13.20;79.10
25108;DHT22;13090;53.422;7.670;2023-03-14T01:27:35;13.20;78.90
25108;DHT22;13090;53.422;7.670;2023-03-14T01:32:38;13.30;78.80
25108;DHT22;13090;53.422;7.670;2023-03-14T01:37:41;13.40;78.70
25108;DHT22;13090;53.422;7.670;2023-03-14T01:42:52;13.50;78.60
25108;DHT22;13090;53.422;7.670;2023-03-14T01:47:55;13.50;78.70
25108;DHT22;13090;53.422;7.670;2023-03-14T01:53:00;13.60;78.90
25108;DHT22;13090;53.422;7.670;2023-03-14T01:58:04;13.70;79.30
25108;DHT22;13090;53.422;7.670;2023-03-14T02:03:09;13.70;79.60
25108;DHT22;13090;53.422;7.670;2023-03-14T02:08:16;13.70;79.90
25108;DHT22;13090;53.422;7.670;2023-03-14T02:13:21;13.80;80.10
25108;DHT22;13090;53.422;7.670;2023-03-14T02:18:24;13.80;80.10
25108;DHT22;13090;53.422;7.670;2023-03-14T02:23:33;13.70;80.80
25108;DHT22;13090;53.422;7.670;2023-03-14T02:28:38;13.70;81.40
25108;DHT22;13090;53.422;7.670;2023-03-14T02:33:41;13.70;81.50
25108;DHT22;13090;53.422;7.670;2023-03-14T02:38:47;13.60;81.70
25108;DHT22;13090;53.422;7.670;2023-03-14T02:43:53;13.60;81.90
25108;DHT22;13090;53.422;7.670;2023-03-14T02:49:00;13.60;82.30
25108;DHT22;13090;53.422;7.670;2023-03-14T02:54:03;13.50;82.20
25108;DHT22;13090;53.422;7.670;2023-03-14T02:59:07;13.50;82.20
25108;DHT22;13090;53.422;7.670;2023-03-14T03:04:09;13.40;82.00
25108;DHT22;13090;53.422;7.670;2023-03-14T03:09:11;13.40;82.10
25108;DHT22;13090;53.422;7.670;2023-03-14T03:14:15;13.30;82.00
25108;DHT22;13090;53.422;7.670;2023-03-14T03:19:17;13.30;82.10
25108;DHT22;13090;53.422;7.670;2023-03-14T03:24:19;13.20;82.10
25108;DHT22;13090;53.422;7.670;2023-03-14T03:29:23;13.20;82.20
25108;DHT22;13090;53.422;7.670;2023-03-14T03:34:26;13.20;82.00
25108;DHT22;13090;53.422;7.670;2023-03-14T03:39:29;13.20;81.70
25108;DHT22;13090;53.422;7.670;2023-03-14T03:44:32;13.10;81.50
25108;DHT22;13090;53.422;7.670;2023-03-14T03:49:34;13.10;81.30
25108;DHT22;13090;53.422;7.670;2023-03-14T03:54:37;13.00;81.10
25108;DHT22;13090;53.422;7.670;2023-03-14T03:59:40;13.00;81.10
25108;DHT22;13090;53.422;7.670;2023-03-14T04:04:42;13.00;81.20
25108;DHT22;13090;53.422;7.670;2023-03-14T04:09:45;12.90;81.30
25108;DHT22;13090;53.422;7.670;2023-03-14T04:14:48;12.90;81.40
25108;DHT22;13090;53.422;7.670;2023-03-14T04:19:50;12.90;81.60
25108;DHT22;13090;53.422;7.670;2023-03-14T04:24:53;12.90;81.80
25108;DHT22;13090;53.422;7.670;2023-03-14T04:29:56;12.80;82.00
25108;DHT22;13090;53.422;7.670;2023-03-14T04:34:58;12.80;82.20
25108;DHT22;13090;53.422;7.670;2023-03-14T04:40:00;12.80;82.40
25108;DHT22;13090;53.422;7.670;2023-03-14T04:45:06;12.70;82.70
25108;DHT22;13090;53.422;7.670;2023-03-14T04:50:09;12.70;83.20
25108;DHT22;13090;53.422;7.670;2023-03-14T04:55:12;12.70;83.20
25108;DHT22;13090;53.422;7.670;2023-03-14T05:00:16;12.60;83.50
25108;DHT22;13090;53.422;7.670;2023-03-14T05:05:19;12.50;83.90
25108;DHT22;13090;53.422;7.670;2023-03-14T05:10:21;12.50;84.30
25108;DHT22;13090;53.422;7.670;2023-03-14T05:15:25;12.40;84.30
25108;DHT22;13090;53.422;7.670;2023-03-14T05:20:27;12.40;84.80
25108;DHT22;13090;53.422;7.670;2023-03-14T05:25:29;12.30;84.80
25108;DHT22;13090;53.422;7.670;2023-03-14T05:30:34;12.20;85.20
25108;DHT22;13090;53.422;7.670;2023-03-14T05:35:37;12.20;85.60
25108;DHT22;13090;53.422;7.670;2023-03-14T05:40:39;12.10;85.80
25108;DHT22;13090;53.422;7.670;2023-03-14T05:45:43;12.10;86.30
25108;DHT22;13090;53.422;7.670;2023-03-14T05:50:45;12.10;86.20
25108;DHT22;13090;53.422;7.670;2023-03-14T05:55:47;12.00;86.90
25108;DHT22;13090;53.422;7.670;2023-03-14T06:00:51;12.00;87.00
25108;DHT22;13090;53.422;7.670;2023-03-14T06:05:53;12.00;87.00
25108;DHT22;13090;53.422;7.670;2023-03-14T06:10:57;12.00;87.20
25108;DHT22;13090;53.422;7.670;2023-03-14T06:16:01;12.00;87.30
25108;DHT22;13090;53.422;7.670;2023-03-14T06:21:03;12.00;87.40
25108;DHT22;13090;53.422;7.670;2023-03-14T06:26:06;12.00;87.70
25108;DHT22;13090;53.422;7.670;2023-03-14T06:31:09;11.90;87.60
25108;DHT22;13090;53.422;7.670;2023-03-14T06:36:12;11.90;88.30
25108;DHT22;13090;53.422;7.670;2023-03-14T06:41:14;11.80;88.60
25108;DHT22;13090;53.422;7.670;2023-03-14T06:46:18;11.80;88.90
25108;DHT22;13090;53.422;7.670;2023-03-14T06:51:21;11.80;88.80
25108;DHT22;13090;53.422;7.670;2023-03-14T06:56:23;11.80;88.90
25108;DHT22;13090;53.422;7.670;2023-03-14T07:01:29;11.70;89.40
25108;DHT22;13090;53.422;7.670;2023-03-14T07:06:32;11.70;89.30
25108;DHT22;13090;53.422;7.670;2023-03-14T07:11:34;11.80;89.60
25108;DHT22;13090;53.422;7.670;2023-03-14T07:16:38;11.70;90.00
25108;DHT22;13090;53.422;7.670;2023-03-14T07:21:40;11.70;90.00
25108;DHT22;13090;53.422;7.670;2023-03-14T07:26:42;11.80;89.80
25108;DHT22;13090;53.422;7.670;2023-03-14T07:31:46;11.80;89.70
25108;DHT22;13090;53.422;7.670;2023-03-14T07:36:48;11.80;89.20
25108;DHT22;13090;53.422;7.670;2023-03-14T07:41:50;11.70;87.60
25108;DHT22;13090;53.422;7.670;2023-03-14T07:46:54;11.60;86.60
25108;DHT22;13090;53.422;7.670;2023-03-14T07:51:56;11.30;85.90
25108;DHT22;13090;53.422;7.670;2023-03-14T07:56:58;11.00;85.70
25108;DHT22;13090;53.422;7.670;2023-03-14T08:02:02;10.70;85.40
25108;DHT22;13090;53.422;7.670;2023-03-14T08:07:04;10.40;84.90
25108;DHT22;13090;53.422;7.670;2023-03-14T08:12:07;10.10;84.70
25108;DHT22;13090;53.422;7.670;2023-03-14T08:17:11;9.80;84.10
25108;DHT22;13090;53.422;7.670;2023-03-14T08:22:13;9.40;84.00
25108;DHT22;13090;53.422;7.670;2023-03-14T08:27:15;9.10;84.40
25108;DHT22;13090;53.422;7.670;2023-03-14T08:32:19;9.00;84.60
25108;DHT22;13090;53.422;7.670;2023-03-14T08:37:21;8.80;84.70
25108;DHT22;13090;53.422;7.670;2023-03-14T08:42:28;8.70;84.90
25108;DHT22;13090;53.422;7.670;2023-03-14T08:47:32;8.60;85.10
25108;DHT22;13090;53.422;7.670;2023-03-14T08:52:34;8.60;85.20
25108;DHT22;13090;53.422;7.670;2023-03-14T08:57:36;8.50;85.30
25108;DHT22;13090;53.422;7.670;2023-03-14T09:02:40;8.60;85.40
25108;DHT22;13090;53.422;7.670;2023-03-14T09:07:43;8.60;85.50
25108;DHT22;13090;53.422;7.670;2023-03-14T09:12:45;8.70;85.70
25108;DHT22;13090;53.422;7.670;2023-03-14T09:17:48;8.80;85.90
25108;DHT22;13090;53.422;7.670;2023-03-14T09:22:51;8.90;86.20
25108;DHT22;13090;53.422;7.670;2023-03-14T09:27:53;9.10;86.70
25108;DHT22;13090;53.422;7.670;2023-03-14T09:32:57;9.40;86.20
25108;DHT22;13090;53.422;7.670;2023-03-14T09:37:59;9.60;86.00
25108;DHT22;13090;53.422;7.670;2023-03-14T09:43:01;9.80;86.20
25108;DHT22;13090;53.422;7.670;2023-03-14T09:48:09;10.10;86.40
25108;DHT22;13090;53.422;7.670;2023-03-14T09:53:17;10.40;85.80
25108;DHT22;13090;53.422;7.670;2023-03-14T09:58:21;10.70;85.40
25108;DHT22;13090;53.422;7.670;2023-03-14T10:03:32;10.90;85.30
25108;DHT22;13090;53.422;7.670;2023-03-14T10:08:39;11.20;84.30
25108;DHT22;13090;53.422;7.670;2023-03-14T10:13:50;11.30;83.60
25108;DHT22;13090;53.422;7.670;2023-03-14T10:19:02;11.40;82.60
25108;DHT22;13090;53.422;7.670;2023-03-14T10:24:09;11.40;81.70
25108;DHT22;13090;53.422;7.670;2023-03-14T10:29:12;11.40;81.70
25108;DHT22;13090;53.422;7.670;2023-03-14T10:34:22;11.20;81.70
25108;DHT22;13090;53.422;7.670;2023-03-14T10:39:36;11.10;81.40
25108;DHT22;13090;53.422;7.670;2023-03-14T10:44:40;11.10;82.00
25108;DHT22;13090;53.422;7.670;2023-03-14T10:49:44;11.20;82.20
25108;DHT22;13090;53.422;7.670;2023-03-14T10:54:48;11.30;81.40
25108;DHT22;13090;53.422;7.670;2023-03-14T10:59:51;11.30;81.10
25108;DHT22;13090;53.422;7.670;2023-03-14T11:05:02;11.40;80.60
25108;DHT22;13090;53.422;7.670;2023-03-14T11:10:14;11.50;80.20
25108;DHT22;13090;53.422;7.670;2023-03-14T11:15:21;11.70;79.30
25108;DHT22;13090;53.422;7.670;2023-03-14T11:20:35;11.80;78.60
25108;DHT22;13090;53.422;7.670;2023-03-14T11:25:45;11.90;77.40
25108;DHT22;13090;53.422;7.670;2023-03-14T11:30:53;11.80;77.60
25108;DHT22;13090;53.422;7.670;2023-03-14T11:36:03;11.90;77.10
25108;DHT22;13090;53.422;7.670;2023-03-14T11:41:13;12.00;76.40
25108;DHT22;13090;53.422;7.670;2023-03-14T11:46:20;12.30;75.80
25108;DHT22;13090;53.422;7.670;2023-03-14T11:51:29;12.60;75.80
25108;DHT22;13090;53.422;7.670;2023-03-14T11:56:37;12.90;73.70
25108;DHT22;13090;53.422;7.670;2023-03-14T12:01:53;13.20;74.10
25108;DHT22;13090;53.422;7.670;2023-03-14T12:07:02;13.40;71.90
25108;DHT22;13090;53.422;7.670;2023-03-14T12:12:06;13.30;71.00
25108;DHT22;13090;53.422;7.670;2023-03-14T12:17:20;13.40;71.70
25108;DHT22;13090;53.422;7.670;2023-03-14T12:22:27;13.60;67.20
25108;DHT22;13090;53.422;7.670;2023-03-14T12:27:49;13.90;67.50
25108;DHT22;13090;53.422;7.670;2023-03-14T12:33:20;14.10;69.30
25108;DHT22;13090;53.422;7.670;2023-03-14T12:38:32;13.90;59.80
25108;DHT22;13090;53.422;7.670;2023-03-14T12:43:41;13.50;60.20
25108;DHT22;13090;53.422;7.670;2023-03-14T12:48:45;13.00;61.40
25108;DHT22;13090;53.422;7.670;2023-03-14T12:54:03;12.70;62.90
25108;DHT22;13090;53.422;7.670;2023-03-14T12:59:28;12.30;61.60
25108;DHT22;13090;53.422;7.670;2023-03-14T13:04:34;12.20;60.10
25108;DHT22;13090;53.422;7.670;2023-03-14T13:10:05;12.20;61.70
25108;DHT22;13090;53.422;7.670;2023-03-14T13:15:19;12.20;60.60
25108;DHT22;13090;53.422;7.670;2023-03-14T13:20:28;12.10;61.70
25108;DHT22;13090;53.422;7.670;2023-03-14T13:25:52;11.90;62.30
25108;DHT22;13090;53.422;7.670;2023-03-14T13:30:58;12.00;64.30
25108;DHT22;13090;53.422;7.670;2023-03-14T13:36:03;12.20;65.10
25108;DHT22;13090;53.422;7.670;2023-03-14T13:41:10;12.30;62.00
25108;DHT22;13090;53.422;7.670;2023-03-14T13:46:27;12.20;61.40
25108;DHT22;13090;53.422;7.670;2023-03-14T13:51:31;12.10;62.60
25108;DHT22;13090;53.422;7.670;2023-03-14T13:56:36;12.20;64.10
25108;DHT22;13090;53.422;7.670;2023-03-14T14:02:10;12.30;62.90
25108;DHT22;13090;53.422;7.670;2023-03-14T14:07:18;12.20;61.50
25108;DHT22;13090;53.422;7.670;2023-03-14T14:12:25;11.90;60.40
25108;DHT22;13090;53.422;7.670;2023-03-14T14:17:38;11.60;61.60
25108;DHT22;13090;53.422;7.670;2023-03-14T14:22:42;11.50;61.40
25108;DHT22;13090;53.422;7.670;2023-03-14T14:27:48;11.40;63.20
25108;DHT22;13090;53.422;7.670;2023-03-14T14:32:52;11.30;62.50
25108;DHT22;13090;53.422;7.670;2023-03-14T14:38:11;11.40;62.30
25108;DHT22;13090;53.422;7.670;2023-03-14T14:43:20;11.50;60.50
25108;DHT22;13090;53.422;7.670;2023-03-14T14:48:24;11.60;62.30
25108;DHT22;13090;53.422;7.670;2023-03-14T14:53:43;11.70;61.70
25108;DHT22;13090;53.422;7.670;2023-03-14T14:58:48;11.80;60.10
25108;DHT22;13090;53.422;7.670;2023-03-14T15:03:54;11.70;59.90
25108;DHT22;13090;53.422;7.670;2023-03-14T15:08:57;11.60;60.30
25108;DHT22;13090;53.422;7.670;2023-03-14T15:14:13;11.40;62.10
25108;DHT22;13090;53.422;7.670;2023-03-14T15:19:21;11.30;63.00
25108;DHT22;13090;53.422;7.670;2023-03-14T15:24:26;11.20;63.30
25108;DHT22;13090;53.422;7.670;2023-03-14T15:29:30;11.00;63.70
25108;DHT22;13090;53.422;7.670;2023-03-14T15:34:46;10.80;63.70
25108;DHT22;13090;53.422;7.670;2023-03-14T15:39:49;10.70;63.80
25108;DHT22;13090;53.422;7.670;2023-03-14T15:44:53;10.60;64.60
25108;DHT22;13090;53.422;7.670;2023-03-14T15:49:55;10.50;64.20
25108;DHT22;13090;53.422;7.670;2023-03-14T15:54:58;10.40;65.10
25108;DHT22;13090;53.422;7.670;2023-03-14T16:00:05;10.30;65.60
25108;DHT22;13090;53.422;7.670;2023-03-14T16:05:10;10.30;65.80
25108;DHT22;13090;53.422;7.670;2023-03-14T16:10:14;10.20;65.90
25108;DHT22;13090;53.422;7.670;2023-03-14T16:15:18;10.10;65.80
25108;DHT22;13090;53.422;7.670;2023-03-14T16:20:22;10.00;66.70
25108;DHT22;13090;53.422;7.670;2023-03-14T16:25:27;9.90;66.90
25108;DHT22;13090;53.422;7.670;2023-03-14T16:30:31;9.80;67.10
25108;DHT22;13090;53.422;7.670;2023-03-14T16:35:39;9.60;67.20
25108;DHT22;13090;53.422;7.670;2023-03-14T16:40:54;9.50;67.40
25108;DHT22;13090;53.422;7.670;2023-03-14T16:46:03;9.20;67.50
25108;DHT22;13090;53.422;7.670;2023-03-14T16:51:12;9.00;68.20
25108;DHT22;13090;53.422;7.670;2023-03-14T16:56:25;8.70;68.80
25108;DHT22;13090;53.422;7.670;2023-03-14T17:01:39;8.50;69.30
25108;DHT22;13090;53.422;7.670;2023-03-14T17:06:43;8.30;70.00
25108;DHT22;13090;53.422;7.670;2023-03-14T17:11:46;8.10;70.20
25108;DHT22;13090;53.422;7.670;2023-03-14T17:17:01;8.00;70.20
25108;DHT22;13090;53.422;7.670;2023-03-14T17:22:09;7.80;70.20
25108;DHT22;13090;53.422;7.670;2023-03-14T17:27:29;7.60;70.30
25108;DHT22;13090;53.422;7.670;2023-03-14T17:32:50;7.50;70.90
25108;DHT22;13090;53.422;7.670;2023-03-14T17:38:02;7.30;71.60
25108;DHT22;13090;53.422;7.670;2023-03-14T17:49:01;6.90;71.80
25108;DHT22;13090;53.422;7.670;2023-03-14T17:54:10;6.70;72.10
25108;DHT22;13090;53.422;7.670;2023-03-14T17:59:16;6.60;72.40
25108;DHT22;13090;53.422;7.670;2023-03-14T18:04:28;6.50;72.50
25108;DHT22;13090;53.422;7.670;2023-03-14T18:09:38;6.50;72.70
25108;DHT22;13090;53.422;7.670;2023-03-14T18:14:49;6.40;72.50
25108;DHT22;13090;53.422;7.670;2023-03-14T18:20:05;6.30;72.90
25108;DHT22;13090;53.422;7.670;2023-03-14T18:25:13;6.20;73.40
25108;DHT22;13090;53.422;7.670;2023-03-14T18:30:26;6.20;73.20
25108;DHT22;13090;53.422;7.670;2023-03-14T18:35:59;6.10;73.60
25108;DHT22;13090;53.422;7.670;2023-03-14T18:41:40;6.10;74.80
25108;DHT22;13090;53.422;7.670;2023-03-14T18:47:17;6.10;74.90
25108;DHT22;13090;53.422;7.670;2023-03-14T19:05:25;5.90;75.60
25108;DHT22;13090;53.422;7.670;2023-03-14T19:17:05;5.80;75.30
25108;DHT22;13090;53.422;7.670;2023-03-14T19:29:01;5.70;76.70
25108;DHT22;13090;53.422;7.670;2023-03-14T19:34:03;5.50;76.50
25108;DHT22;13090;53.422;7.670;2023-03-14T19:39:06;5.40;76.60
25108;DHT22;13090;53.422;7.670;2023-03-14T19:44:09;5.30;76.80
25108;DHT22;13090;53.422;7.670;2023-03-14T19:49:11;5.20;77.10
25108;DHT22;13090;53.422;7.670;2023-03-14T19:54:14;5.10;77.30
25108;DHT22;13090;53.422;7.670;2023-03-14T19:59:18;5.00;77.60
25108;DHT22;13090;53.422;7.670;2023-03-14T20:04:20;5.00;78.00
25108;DHT22;13090;53.422;7.670;2023-03-14T20:09:22;4.90;77.90
25108;DHT22;13090;53.422;7.670;2023-03-14T20:14:26;4.90;78.20
25108;DHT22;13090;53.422;7.670;2023-03-14T20:19:28;4.80;78.40
25108;DHT22;13090;53.422;7.670;2023-03-14T20:24:30;4.80;78.80
25108;DHT22;13090;53.422;7.670;2023-03-14T20:29:34;4.80;79.20
25108;DHT22;13090;53.422;7.670;2023-03-14T20:34:37;4.90;79.90
25108;DHT22;13090;53.422;7.670;2023-03-14T20:39:40;5.00;80.10
25108;DHT22;13090;53.422;7.670;2023-03-14T20:44:44;5.20;80.10
25108;DHT22;13090;53.422;7.670;2023-03-14T20:49:46;5.20;79.60
25108;DHT22;13090;53.422;7.670;2023-03-14T20:54:48;5.20;79.50
25108;DHT22;13090;53.422;7.670;2023-03-14T20:59:52;5.20;79.50
25108;DHT22;13090;53.422;7.670;2023-03-14T21:04:56;5.20;79.70
25108;DHT22;13090;53.422;7.670;2023-03-14T21:09:58;5.20;79.50
25108;DHT22;13090;53.422;7.670;2023-03-14T21:15:02;5.10;79.10
25108;DHT22;13090;53.422;7.670;2023-03-14T21:20:06;4.90;79.00
25108;DHT22;13090;53.422;7.670;2023-03-14T21:25:09;4.70;79.20
25108;DHT22;13090;53.422;7.670;2023-03-14T21:30:14;4.60;79.80
25108;DHT22;13090;53.422;7.670;2023-03-14T21:35:16;4.50;80.20
25108;DHT22;13090;53.422;7.670;2023-03-14T21:40:18;4.50;80.50
25108;DHT22;13090;53.422;7.670;2023-03-14T21:45:23;4.50;80.90
25108;DHT22;13090;53.422;7.670;2023-03-14T21:50:26;4.60;81.40
25108;DHT22;13090;53.422;7.670;2023-03-14T21:55:28;4.60;81.60
25108;DHT22;13090;53.422;7.670;2023-03-14T22:00:32;4.60;81.50
25108;DHT22;13090;53.422;7.670;2023-03-14T22:05:34;4.70;81.70
25108;DHT22;13090;53.422;7.670;2023-03-14T22:10:42;4.70;81.70
25108;DHT22;13090;53.422;7.670;2023-03-14T22:15:47;4.80;81.50
25108;DHT22;13090;53.422;7.670;2023-03-14T22:20:51;4.90;81.80
25108;DHT22;13090;53.422;7.670;2023-03-14T22:25:53;5.00;81.70
25108;DHT22;13090;53.422;7.670;2023-03-14T22:30:57;5.10;81.70
25108;DHT22;13090;53.422;7.670;2023-03-14T22:35:59;5.10;81.60
25108;DHT22;13090;53.422;7.670;2023-03-14T22:41:03;5.10;81.60
25108;DHT22;13090;53.422;7.670;2023-03-14T22:46:07;5.10;81.10
25108;DHT22;13090;53.422;7.670;2023-03-14T22:51:12;5.00;81.20
25108;DHT22;13090;53.422;7.670;2023-03-14T22:56:14;5.00;82.10
25108;DHT22;13090;53.422;7.670;2023-03-14T23:01:18;4.90;81.60
25108;DHT22;13090;53.422;7.670;2023-03-14T23:06:20;4.80;81.80
25108;DHT22;13090;53.422;7.670;2023-03-14T23:11:22;4.80;82.00
25108;DHT22;13090;53.422;7.670;2023-03-14T23:16:26;4.80;82.20
25108;DHT22;13090;53.422;7.670;2023-03-14T23:21:41;4.90;82.10
25108;DHT22;13090;53.422;7.670;2023-03-14T23:26:43;4.90;82.20
25108;DHT22;13090;53.422;7.670;2023-03-14T23:31:47;5.00;82.30
25108;DHT22;13090;53.422;7.670;2023-03-14T23:36:49;5.10;82.20
25108;DHT22;13090;53.422;7.670;2023-03-14T23:41:51;5.20;82.90
25108;DHT22;13090;53.422;7.670;2023-03-14T23:46:55;5.30;82.00
25108;DHT22;13090;53.422;7.670;2023-03-14T23:51:57;5.30;81.90
25108;DHT22;13090;53.422;7.670;2023-03-14T23:57:02;5.40;81.90
